PWSweather.com
Personal Weather Stations
Station Observations
SWHWX01
St AppolinardFR 38160

St AppolinardFR 38160

Lat: 45.191, Lon: 5.268

Elevation: 1460

Station Type: Davis Vantage Pro2 Plus

Latest ConditionsUpdated 11:00:02 AM GMT+01:01 Saturday, May 25, 2019
Currently Today's Max Today's Min Today's Average
Temperature 63.5°F17.5°C 65.3°F18.5°C 56.4°F13.6°C 59.4°F15.2°C
Dew Point 53.9°F12.2°C 54.0°F12.2°C 49.2°F9.6°C 50.7°F10.4°C
Winds 7.4 mph E11.9 kmh E 8.8 mph -14.2 kmh - - 3.0 mph 4.8 kmh
Wind Gusts 10.0 mph16.1 kmh 12.0 mph19.3 kmh - -
Humidity 71% 78% 66% 73%
Pressure 29.97 in1014.9 mb 29.97 in1014.9 mb 29.90 in1012.5 mb -
Hour Temp Dew Point Humidity Winds Wind Gusts Pressure Precip Precip Rate Daily Precip Total
11:00 AM 63.5°F17.5°C 53.9°F12.2°C 71% 7.4 mph E11.9 kmh E 10.0 mph16.1 kmh 29.97 in1014.9 mb - 0.00 in0.0 mm 0.00 in0.0 mm
10:30 AM 65.3°F18.5°C 54.0°F12.2°C 67% 3.9 mph ENE6.3 kmh ENE 5.0 mph8.0 kmh 29.97 in1014.9 mb - 0.00 in0.0 mm 0.00 in0.0 mm
10:00 AM 63.6°F17.6°C 53.3°F11.8°C 69% 2.0 mph NNW3.2 kmh NNW 2.0 mph3.2 kmh 29.97 in1014.9 mb - 0.00 in0.0 mm 0.00 in0.0 mm
09:30 AM 60.8°F16.0°C 52.1°F11.2°C 73% 3.3 mph NNW5.3 kmh NNW 6.0 mph9.7 kmh 29.96 in1014.6 mb - 0.00 in0.0 mm 0.00 in0.0 mm
09:00 AM 60.3°F15.7°C 51.6°F10.9°C 73% 3.4 mph NNW5.5 kmh NNW 6.0 mph9.7 kmh 29.97 in1014.9 mb - 0.00 in0.0 mm 0.00 in0.0 mm
08:30 AM 60.6°F15.9°C 51.9°F11.1°C 73% 2.1 mph N3.4 kmh N 4.0 mph6.4 kmh 29.96 in1014.6 mb - 0.00 in0.0 mm 0.00 in0.0 mm
08:00 AM 59.3°F15.2°C 51.4°F10.8°C 75% 2.5 mph N4.0 kmh N 3.0 mph4.8 kmh 29.95 in1014.2 mb - 0.00 in0.0 mm 0.00 in0.0 mm
07:30 AM 57.7°F14.3°C 50.2°F10.1°C 76% 0.9 mph NE1.4 kmh NE 4.0 mph6.4 kmh 29.95 in1014.2 mb - 0.00 in0.0 mm 0.00 in0.0 mm
07:00 AM 57.1°F13.9°C 50.0°F10.0°C 77% Calm Calm -- 29.94 in1013.9 mb - 0.00 in0.0 mm 0.00 in0.0 mm
06:30 AM 56.7°F13.7°C 49.9°F9.9°C 78% 0.1 mph NE0.2 kmh NE 4.0 mph6.4 kmh 29.93 in1013.5 mb - 0.00 in0.0 mm 0.00 in0.0 mm
06:00 AM 56.4°F13.6°C 49.3°F9.6°C 77% 1.7 mph N2.7 kmh N 3.0 mph4.8 kmh 29.93 in1013.5 mb - 0.00 in0.0 mm 0.00 in0.0 mm
05:30 AM 56.8°F13.8°C 49.3°F9.6°C 76% 1.2 mph N1.9 kmh N 3.0 mph4.8 kmh 29.92 in1013.2 mb - 0.00 in0.0 mm 0.00 in0.0 mm
05:00 AM 57.1°F13.9°C 49.2°F9.6°C 75% 7.1 mph NNW11.4 kmh NNW 12.0 mph19.3 kmh 29.91 in1012.9 mb - 0.00 in0.0 mm 0.00 in0.0 mm
04:30 AM 57.5°F14.2°C 49.3°F9.6°C 74% 7.2 mph NW11.6 kmh NW 11.0 mph17.7 kmh 29.90 in1012.5 mb - 0.00 in0.0 mm 0.00 in0.0 mm
04:00 AM 57.9°F14.4°C 49.7°F9.8°C 74% 8.8 mph NW14.2 kmh NW 12.0 mph19.3 kmh 29.90 in1012.5 mb - 0.00 in0.0 mm 0.00 in0.0 mm
03:30 AM 57.8°F14.3°C 49.9°F9.9°C 75% 3.9 mph N6.3 kmh N 7.0 mph11.3 kmh 29.90 in1012.5 mb - 0.00 in0.0 mm 0.00 in0.0 mm
03:00 AM 57.5°F14.2°C 50.0°F10.0°C 76% 4.0 mph N6.4 kmh N 5.0 mph8.0 kmh 29.90 in1012.5 mb - 0.00 in0.0 mm 0.00 in0.0 mm
02:30 AM 58.3°F14.6°C 49.7°F9.8°C 73% 0.5 mph N0.8 kmh N 2.0 mph3.2 kmh 29.90 in1012.5 mb - 0.00 in0.0 mm 0.00 in0.0 mm
02:00 AM 59.1°F15.1°C 49.7°F9.8°C 71% Calm Calm -- 29.90 in1012.5 mb - 0.00 in0.0 mm 0.00 in0.0 mm
01:30 AM 59.6°F15.3°C 50.2°F10.1°C 71% Calm Calm -- 29.90 in1012.5 mb - 0.00 in0.0 mm 0.00 in0.0 mm
01:00 AM 60.2°F15.7°C 50.4°F10.2°C 70% 0.3 mph N0.5 kmh N 3.0 mph4.8 kmh 29.90 in1012.5 mb - 0.00 in0.0 mm 0.00 in0.0 mm
12:30 AM 61.7°F16.5°C 50.7°F10.4°C 67% 5.0 mph NNW8.0 kmh NNW 6.0 mph9.7 kmh 29.90 in1012.5 mb - 0.00 in0.0 mm 0.00 in0.0 mm
12:00 AM 61.8°F16.6°C 50.3°F10.2°C 66% 4.0 mph NW6.4 kmh NW 7.0 mph11.3 kmh 29.91 in1012.9 mb - 0.00 in0.0 mm 0.00 in0.0 mm